PTI737 YMML-VABB
Flight info
| Callsign | PTI737 |
|---|---|
| Flight time | N/A |
| Altitude | 34000 |
| Route | PEDNI H345 AD A585 SAPDA L896 MMV Q8 AGELA MOLGO2A |
| Aircraft | B737/M-SDE2E3FGHIRWXY/LB1 |
Departure
| Time | 2026-05-05 09:12 |
|---|---|
| Airport | Melbourne Airport (YMML) |
Arrival
| Time | N/A |
|---|---|
| Airport | Chhatrapati Shivaji Maharaj International Airport (VABB) |
| Time | Latitude | Longitude | Altitude | Speed | Heading |
|---|---|---|---|---|---|
| 2026-05-05 08:35 | -37.66575 | 144.84661 | 402 ft | 0 kts | 347° |
| 2026-05-05 09:01 | -37.66588 | 144.84664 | 400 ft | 4 kts | 347° |
| 2026-05-05 09:01 | -37.66612 | 144.84672 | 398 ft | 2 kts | 346° |
| 2026-05-05 09:02 | -37.66634 | 144.84683 | 401 ft | 4 kts | 307° |
| 2026-05-05 09:02 | -37.66640 | 144.84712 | 400 ft | 4 kts | 262° |
| 2026-05-05 09:02 | -37.66639 | 144.84723 | 398 ft | 1 kts | 261° |
| 2026-05-05 09:05 | -37.66647 | 144.84657 | 400 ft | 14 kts | 261° |
| 2026-05-05 09:05 | -37.66661 | 144.84535 | 398 ft | 14 kts | 261° |
| 2026-05-05 09:06 | -37.66679 | 144.84386 | 396 ft | 21 kts | 261° |
| 2026-05-05 09:06 | -37.66709 | 144.84213 | 392 ft | 20 kts | 236° |
| 2026-05-05 09:06 | -37.66840 | 144.84202 | 389 ft | 19 kts | 172° |
| 2026-05-05 09:06 | -37.66972 | 144.84226 | 385 ft | 19 kts | 171° |
| 2026-05-05 09:07 | -37.67099 | 144.84251 | 383 ft | 18 kts | 171° |
| 2026-05-05 09:07 | -37.67222 | 144.84276 | 380 ft | 18 kts | 171° |
| 2026-05-05 09:07 | -37.67341 | 144.84295 | 378 ft | 17 kts | 173° |
| 2026-05-05 09:07 | -37.67455 | 144.84314 | 375 ft | 16 kts | 170° |
| 2026-05-05 09:08 | -37.67602 | 144.84343 | 371 ft | 24 kts | 172° |
| 2026-05-05 09:08 | -37.67768 | 144.84373 | 367 ft | 23 kts | 172° |
| 2026-05-05 09:08 | -37.67925 | 144.84401 | 364 ft | 23 kts | 172° |
| 2026-05-05 09:08 | -37.68079 | 144.84428 | 356 ft | 22 kts | 172° |
| 2026-05-05 09:09 | -37.68226 | 144.84457 | 356 ft | 21 kts | 169° |
| 2026-05-05 09:09 | -37.68371 | 144.84463 | 351 ft | 18 kts | 202° |
| 2026-05-05 09:09 | -37.68457 | 144.84379 | 344 ft | 16 kts | 218° |
| 2026-05-05 09:09 | -37.68543 | 144.84292 | 338 ft | 13 kts | 238° |
| 2026-05-05 09:10 | -37.68551 | 144.84248 | 338 ft | 0 kts | 262° |
| 2026-05-05 09:10 | -37.68552 | 144.84246 | 340 ft | 0 kts | 262° |
| 2026-05-05 09:11 | -37.68555 | 144.84218 | 340 ft | 10 kts | 262° |
| 2026-05-05 09:11 | -37.68555 | 144.84094 | 351 ft | 9 kts | 314° |
| 2026-05-05 09:11 | -37.68525 | 144.84088 | 349 ft | 10 kts | 353° |
| 2026-05-05 09:11 | -37.68220 | 144.84033 | 349 ft | 79 kts | 351° |
| 2026-05-05 09:12 | -37.67460 | 144.83890 | 367 ft | 139 kts | 352° |
| 2026-05-05 09:12 | -37.66348 | 144.83675 | 526 ft | 173 kts | 352° |
| 2026-05-05 09:12 | -37.65236 | 144.83413 | 1416 ft | 161 kts | 337° |
| 2026-05-05 09:12 | -37.64218 | 144.82501 | 1426 ft | 205 kts | 301° |
| 2026-05-05 09:13 | -37.63889 | 144.80793 | 2151 ft | 198 kts | 271° |
| 2026-05-05 09:13 | -37.63831 | 144.78971 | 2559 ft | 220 kts | 272° |
| 2026-05-05 09:13 | -37.63763 | 144.76987 | 3055 ft | 233 kts | 271° |
| 2026-05-05 09:13 | -37.63557 | 144.74854 | 3478 ft | 254 kts | 285° |
| 2026-05-05 09:14 | -37.62966 | 144.72722 | 4231 ft | 260 kts | 289° |
| 2026-05-05 09:14 | -37.62325 | 144.70575 | 5110 ft | 262 kts | 289° |
| 2026-05-05 09:14 | -37.61675 | 144.68409 | 5936 ft | 266 kts | 289° |
| 2026-05-05 09:14 | -37.61021 | 144.66213 | 6732 ft | 270 kts | 289° |
| 2026-05-05 09:15 | -37.60360 | 144.63981 | 7485 ft | 272 kts | 288° |
| 2026-05-05 09:15 | -37.59699 | 144.61738 | 8280 ft | 274 kts | 288° |
| 2026-05-05 09:15 | -37.59035 | 144.59478 | 9041 ft | 276 kts | 288° |
| 2026-05-05 09:15 | -37.58368 | 144.57198 | 9808 ft | 279 kts | 288° |
| 2026-05-05 09:16 | -37.57693 | 144.54885 | 10432 ft | 287 kts | 288° |
| 2026-05-05 09:16 | -37.56979 | 144.52430 | 10678 ft | 307 kts | 288° |
| 2026-05-05 09:16 | -37.56233 | 144.49871 | 11260 ft | 314 kts | 288° |
| 2026-05-05 09:16 | -37.55475 | 144.47273 | 11956 ft | 317 kts | 288° |
| 2026-05-05 09:17 | -37.54718 | 144.44684 | 12664 ft | 321 kts | 288° |
| 2026-05-05 09:17 | -37.53943 | 144.42037 | 13364 ft | 324 kts | 288° |
| 2026-05-05 09:17 | -37.53160 | 144.39357 | 14056 ft | 328 kts | 288° |
| 2026-05-05 09:17 | -37.52366 | 144.36646 | 14690 ft | 331 kts | 288° |
| 2026-05-05 09:18 | -37.51565 | 144.33910 | 15312 ft | 335 kts | 288° |
| 2026-05-05 09:18 | -37.50755 | 144.31148 | 15934 ft | 338 kts | 288° |
| 2026-05-05 09:18 | -37.49937 | 144.28358 | 16547 ft | 342 kts | 288° |
| 2026-05-05 09:18 | -37.49108 | 144.25536 | 17162 ft | 345 kts | 289° |
| 2026-05-05 09:19 | -37.48270 | 144.22686 | 17769 ft | 349 kts | 289° |
| 2026-05-05 09:19 | -37.47421 | 144.19801 | 18371 ft | 353 kts | 289° |
| 2026-05-05 09:19 | -37.46564 | 144.16892 | 18951 ft | 356 kts | 289° |
| 2026-05-05 09:19 | -37.45700 | 144.13963 | 19517 ft | 358 kts | 289° |
| 2026-05-05 09:20 | -37.44829 | 144.11012 | 20066 ft | 361 kts | 289° |
| 2026-05-05 09:20 | -37.43949 | 144.08034 | 20612 ft | 365 kts | 289° |
| 2026-05-05 09:20 | -37.43061 | 144.05034 | 21136 ft | 368 kts | 289° |
| 2026-05-05 09:20 | -37.42165 | 144.02006 | 21674 ft | 371 kts | 289° |
| 2026-05-05 09:21 | -37.41260 | 143.98953 | 22200 ft | 374 kts | 289° |